Time;durP1;ratioP1;P1;durP2;ratioP2;P2;SDS_P1;SDS_P2;PMS_P1;PMS_P2;Temp;Humidity;BMP_temperature;BMP_pressure;BME280_temperature;BME280_humidity;BME280_pressure;Samples;Min_cycle;Max_cycle;Signal;HPM_P1;HPM_P2
2024/04/23 00:01:35;;;;;;;2.47;2.27;;;;;;;;;;5564786;25;20717;-79
2024/04/23 00:04:03;;;;;;;8.57;3.53;;;;;;;;;;5566831;25;20280;-78
2024/04/23 00:06:29;;;;;;;2.30;2.10;;;;;;;;;;5564295;25;20227;-79
2024/04/23 00:08:57;;;;;;;2.30;2.10;;;;;;;;;;5567072;25;20281;-79
2024/04/23 00:11:26;;;;;;;4.00;2.80;;;;;;;;;;5563979;25;20231;-79
2024/04/23 00:13:54;;;;;;;2.63;2.43;;;;;;;;;;5566649;25;20225;-79
2024/04/23 00:16:20;;;;;;;1.77;1.67;;;;;;;;;;5563451;25;20230;-79
2024/04/23 00:18:49;;;;;;;2.63;2.27;;;;;;;;;;5566333;25;20713;-79
2024/04/23 00:21:14;;;;;;;2.30;2.10;;;;;;;;;;5563936;25;20231;-79
2024/04/23 00:23:43;;;;;;;2.60;2.20;;;;;;;;;;5566010;25;20582;-79
2024/04/23 00:26:09;;;;;;;7.27;2.47;;;;;;;;;;5563529;25;20272;-79
2024/04/23 00:28:40;;;;;;;2.90;2.57;;;;;;;;;;5565384;25;20241;-79
2024/04/23 00:31:05;;;;;;;2.60;2.40;;;;;;;;;;5563709;25;20605;-78
2024/04/23 00:33:34;;;;;;;2.60;2.40;;;;;;;;;;5566106;25;20238;-79
2024/04/23 00:36:00;;;;;;;2.97;2.77;;;;;;;;;;5563305;25;20226;-79
2024/04/23 00:38:28;;;;;;;2.73;2.53;;;;;;;;;;5566586;25;20561;-78
2024/04/23 00:40:54;;;;;;;3.03;2.73;;;;;;;;;;5563785;25;20583;-79
2024/04/23 00:43:22;;;;;;;3.50;2.40;;;;;;;;;;5565493;25;20235;-79
2024/04/23 00:45:55;;;;;;;3.83;2.83;;;;;;;;;;5563586;25;20778;-79
2024/04/23 00:48:24;;;;;;;5.20;3.33;;;;;;;;;;5565813;25;20289;-78
2024/04/23 00:50:50;;;;;;;3.10;2.80;;;;;;;;;;5563441;25;20268;-79
2024/04/23 00:53:19;;;;;;;4.10;3.70;;;;;;;;;;5531890;25;20259;-79
2024/04/23 00:55:44;;;;;;;4.93;4.13;;;;;;;;;;5525869;25;20330;-79
2024/04/23 00:58:13;;;;;;;4.97;3.50;;;;;;;;;;5563807;25;20578;-79
2024/04/23 01:00:39;;;;;;;5.60;3.97;;;;;;;;;;5563275;25;20272;-79
2024/04/23 01:03:10;;;;;;;3.23;2.93;;;;;;;;;;5565922;25;20679;-79
2024/04/23 01:05:36;;;;;;;3.57;3.27;;;;;;;;;;5563256;25;20230;-79
2024/04/23 01:08:04;;;;;;;2.83;2.53;;;;;;;;;;5565241;25;20755;-79
2024/04/23 01:10:33;;;;;;;3.90;3.00;;;;;;;;;;5563438;25;20226;-79
2024/04/23 01:12:59;;;;;;;6.33;2.77;;;;;;;;;;5538971;25;20333;-79
2024/04/23 01:15:28;;;;;;;2.90;2.63;;;;;;;;;;5565407;25;20230;-79
2024/04/23 01:17:57;;;;;;;5.37;2.57;;;;;;;;;;5539248;25;20797;-79
2024/04/23 01:20:28;;;;;;;5.27;3.07;;;;;;;;;;5564773;25;20238;-78
2024/04/23 01:23:02;;;;;;;4.77;2.33;;;;;;;;;;5562758;25;20305;-79
2024/04/23 01:25:30;;;;;;;3.20;2.83;;;;;;;;;;5565301;25;20228;-79
2024/04/23 01:27:59;;;;;;;3.70;3.00;;;;;;;;;;5563033;25;20767;-79
2024/04/23 01:30:28;;;;;;;2.53;2.33;;;;;;;;;;5565084;25;20273;-79
2024/04/23 01:32:54;;;;;;;3.27;2.50;;;;;;;;;;5562634;25;20226;-79
2024/04/23 01:35:24;;;;;;;2.70;2.50;;;;;;;;;;5564936;25;20277;-79
2024/04/23 01:37:51;;;;;;;3.90;2.40;;;;;;;;;;5562495;25;20230;-79
2024/04/23 01:40:20;;;;;;;2.80;2.60;;;;;;;;;;5565571;25;20276;-79
2024/04/23 01:42:46;;;;;;;3.20;2.57;;;;;;;;;;5566557;25;20223;-79
2024/04/23 01:45:17;;;;;;;2.90;2.50;;;;;;;;;;5567806;25;20235;-79
2024/04/23 01:47:44;;;;;;;2.73;2.13;;;;;;;;;;5566764;25;20277;-79
2024/04/23 01:50:12;;;;;;;2.70;2.33;;;;;;;;;;5568233;25;20234;-79
2024/04/23 01:52:38;;;;;;;3.50;2.80;;;;;;;;;;5566140;25;20230;-79
2024/04/23 01:55:07;;;;;;;2.73;2.53;;;;;;;;;;5568630;25;20284;-79
2024/04/23 01:57:33;;;;;;;3.53;2.93;;;;;;;;;;5565756;25;20230;-79
2024/04/23 02:00:05;;;;;;;3.37;2.93;;;;;;;;;;5568868;25;20286;-79
2024/04/23 02:02:36;;;;;;;3.10;2.80;;;;;;;;;;5565954;25;20854;-79
2024/04/23 02:05:05;;;;;;;2.63;2.13;;;;;;;;;;5568258;25;20689;-79
2024/04/23 02:07:31;;;;;;;2.37;2.17;;;;;;;;;;5566476;25;20226;-79
2024/04/23 02:09:57;;;;;;;2.70;2.50;;;;;;;;;;5568221;25;20805;-79
2024/04/23 02:12:26;;;;;;;2.30;2.13;;;;;;;;;;5568496;25;20290;-79
2024/04/23 02:14:52;;;;;;;2.30;2.10;;;;;;;;;;5565831;25;20370;-79
2024/04/23 02:17:20;;;;;;;3.20;2.40;;;;;;;;;;5567886;25;20230;-79
2024/04/23 02:19:48;;;;;;;2.50;2.30;;;;;;;;;;5565399;25;20230;-80
2024/04/23 02:22:19;;;;;;;2.07;1.97;;;;;;;;;;5567555;25;20242;-79
2024/04/23 02:24:45;;;;;;;2.03;1.93;;;;;;;;;;5565614;25;20230;-79
2024/04/23 02:27:13;;;;;;;2.20;2.00;;;;;;;;;;5568210;25;20277;-79
2024/04/23 02:29:39;;;;;;;3.00;2.17;;;;;;;;;;5565166;25;20617;-79
2024/04/23 02:32:07;;;;;;;2.33;2.13;;;;;;;;;;5567782;25;20238;-79
2024/04/23 02:34:33;;;;;;;2.13;1.97;;;;;;;;;;5565208;25;20268;-79
2024/04/23 02:37:04;;;;;;;3.53;2.23;;;;;;;;;;5567843;25;20694;-79
2024/04/23 02:39:30;;;;;;;2.47;2.30;;;;;;;;;;5565607;25;20282;-79
2024/04/23 02:41:58;;;;;;;3.63;2.17;;;;;;;;;;5567604;25;20231;-79
2024/04/23 02:44:25;;;;;;;2.13;2.03;;;;;;;;;;5565708;25;20233;-79
2024/04/23 02:46:57;;;;;;;2.63;2.30;;;;;;;;;;5568130;25;20239;-79
2024/04/23 02:49:22;;;;;;;2.20;2.00;;;;;;;;;;5564962;25;20264;-78
2024/04/23 02:51:51;;;;;;;3.13;2.83;;;;;;;;;;5566713;25;20242;-79
2024/04/23 02:54:20;;;;;;;2.67;2.47;;;;;;;;;;5564975;25;20576;-79
2024/04/23 02:56:48;;;;;;;2.33;2.20;;;;;;;;;;5567834;25;20231;-79
2024/04/23 02:59:16;;;;;;;3.53;2.63;;;;;;;;;;5567505;25;20243;-79
2024/04/23 03:01:42;;;;;;;2.63;2.13;;;;;;;;;;5564591;25;20724;-79
2024/04/23 03:04:11;;;;;;;2.37;2.17;;;;;;;;;;5567198;25;20302;-78
2024/04/23 03:06:37;;;;;;;2.40;2.20;;;;;;;;;;5564902;25;20341;-79
2024/04/23 03:09:05;;;;;;;2.60;2.40;;;;;;;;;;5567657;25;20235;-80
2024/04/23 03:11:34;;;;;;;2.90;2.60;;;;;;;;;;5564679;25;20274;-79
2024/04/23 03:14:02;;;;;;;2.73;2.53;;;;;;;;;;5567029;25;20235;-79
2024/04/23 03:16:28;;;;;;;2.47;2.27;;;;;;;;;;5565283;25;20277;-79
2024/04/23 03:18:56;;;;;;;2.10;2.00;;;;;;;;;;5567615;25;20231;-79
2024/04/23 03:21:22;;;;;;;2.50;2.30;;;;;;;;;;5564331;25;20227;-79
2024/04/23 03:23:50;;;;;;;2.77;2.57;;;;;;;;;;5567404;25;20239;-79
2024/04/23 03:26:16;;;;;;;2.43;2.23;;;;;;;;;;5564616;25;20227;-79
2024/04/23 03:28:47;;;;;;;2.30;2.20;;;;;;;;;;5567083;25;20632;-79
2024/04/23 03:31:14;;;;;;;5.67;2.37;;;;;;;;;;5564704;25;20784;-79
2024/04/23 03:33:43;;;;;;;2.50;2.30;;;;;;;;;;5567239;25;20273;-79
2024/04/23 03:36:09;;;;;;;4.13;2.93;;;;;;;;;;5564507;25;20234;-79
2024/04/23 03:38:37;;;;;;;3.37;2.57;;;;;;;;;;5566918;25;20278;-79
2024/04/23 03:41:05;;;;;;;3.97;2.20;;;;;;;;;;5564304;25;20273;-79
2024/04/23 03:43:34;;;;;;;2.20;2.00;;;;;;;;;;5564487;25;20277;-80
2024/04/23 03:46:05;;;;;;;4.03;2.00;;;;;;;;;;5564948;25;20374;-78
2024/04/23 03:48:34;;;;;;;2.70;2.50;;;;;;;;;;5532561;25;20558;-79
2024/04/23 03:51:00;;;;;;;2.13;2.03;;;;;;;;;;5563105;25;20273;-79
2024/04/23 03:53:28;;;;;;;3.20;2.60;;;;;;;;;;5562487;25;20577;-80
2024/04/23 03:55:54;;;;;;;2.57;2.37;;;;;;;;;;5560316;25;20684;-79
2024/04/23 03:58:22;;;;;;;3.50;2.17;;;;;;;;;;5562485;25;20235;-79
2024/04/23 04:00:48;;;;;;;3.17;2.70;;;;;;;;;;5539441;25;20278;-79
2024/04/23 04:06:09;;;;;;;6.90;5.30;;;;;;;;;;5565198;25;20277;-79
2024/04/23 04:08:39;;;;;;;7.83;6.03;;;;;;;;;;5562523;25;20280;-79
2024/04/23 04:11:08;;;;;;;4.30;3.90;;;;;;;;;;5561434;25;20265;-79
2024/04/23 04:13:39;;;;;;;8.67;7.60;;;;;;;;;;5561148;25;20705;-78
2024/04/23 04:16:06;;;;;;;7.07;6.47;;;;;;;;;;5562968;25;20457;-79
2024/04/23 04:18:37;;;;;;;4.50;4.10;;;;;;;;;;5566092;25;20274;-78
2024/04/23 04:21:03;;;;;;;3.20;2.90;;;;;;;;;;5547253;25;20347;-78
2024/04/23 04:23:32;;;;;;;4.30;3.60;;;;;;;;;;5557007;25;20223;-77
2024/04/23 04:25:57;;;;;;;2.13;2.03;;;;;;;;;;5554091;25;20231;-77
2024/04/23 04:28:26;;;;;;;3.17;2.83;;;;;;;;;;5554325;25;20334;-76
2024/04/23 04:30:52;;;;;;;2.60;2.40;;;;;;;;;;5538572;25;20761;-76
2024/04/23 04:33:20;;;;;;;2.50;2.30;;;;;;;;;;5566479;25;20276;-73
2024/04/23 04:35:48;;;;;;;3.47;2.73;;;;;;;;;;5563993;25;20230;-78
2024/04/23 04:38:17;;;;;;;2.17;1.97;;;;;;;;;;5566027;25;20242;-77
2024/04/23 04:40:43;;;;;;;2.80;2.60;;;;;;;;;;5563397;25;20333;-76
2024/04/23 04:43:11;;;;;;;2.40;2.20;;;;;;;;;;5564972;25;20234;-76
2024/04/23 04:45:37;;;;;;;3.47;2.87;;;;;;;;;;5563048;25;20294;-76
2024/04/23 04:48:06;;;;;;;8.33;7.07;;;;;;;;;;5565811;25;20238;-76
2024/04/23 04:50:31;;;;;;;3.03;2.83;;;;;;;;;;5563177;25;20321;-76
2024/04/23 04:53:03;;;;;;;2.47;2.27;;;;;;;;;;5563031;25;20235;-76
2024/04/23 04:55:30;;;;;;;3.27;2.97;;;;;;;;;;5563329;25;20226;-76
2024/04/23 04:57:58;;;;;;;2.30;2.20;;;;;;;;;;5565134;25;20246;-76
2024/04/23 05:00:26;;;;;;;2.87;1.90;;;;;;;;;;5562992;25;20290;-77
2024/04/23 05:02:55;;;;;;;2.40;2.20;;;;;;;;;;5565706;25;20269;-77
2024/04/23 05:05:21;;;;;;;2.40;2.20;;;;;;;;;;5563317;25;20682;-77
2024/04/23 05:07:49;;;;;;;2.33;2.20;;;;;;;;;;5565564;25;20242;-76
2024/04/23 05:10:17;;;;;;;2.90;2.57;;;;;;;;;;5562084;25;20736;-77
2024/04/23 05:12:46;;;;;;;5.07;4.63;;;;;;;;;;5564778;25;20285;-77
2024/04/23 05:15:12;;;;;;;14.07;9.53;;;;;;;;;;5561837;25;20321;-77
2024/04/23 05:17:40;;;;;;;11.43;8.70;;;;;;;;;;5564948;25;20575;-77
2024/04/23 05:20:09;;;;;;;5.23;4.63;;;;;;;;;;5562251;25;20729;-77
2024/04/23 05:22:37;;;;;;;5.67;4.97;;;;;;;;;;5564883;25;20276;-77
2024/04/23 05:25:04;;;;;;;4.77;4.37;;;;;;;;;;5561973;25;20273;-77
2024/04/23 05:27:35;;;;;;;3.80;3.50;;;;;;;;;;5565631;25;20272;-77
2024/04/23 05:30:00;;;;;;;7.53;6.67;;;;;;;;;;5562403;25;20230;-77
2024/04/23 05:35:14;;;;;;;9.23;6.93;;;;;;;;;;5565122;25;20261;-78
2024/04/23 05:37:43;;;;;;;3.47;3.17;;;;;;;;;;5563279;25;20226;-78
2024/04/23 05:40:12;;;;;;;3.80;2.80;;;;;;;;;;5562423;25;20231;-78
2024/04/23 05:42:44;;;;;;;2.97;2.57;;;;;;;;;;5562995;25;20277;-78
2024/04/23 05:45:13;;;;;;;2.80;2.60;;;;;;;;;;5562038;25;20269;-78
2024/04/23 05:48:19;;;;;;;4.73;4.07;;;;;;;;;;5562455;25;20286;-77
2024/04/23 05:51:25;;;;;;;5.27;4.77;;;;;;;;;;5562704;25;20223;-78
2024/04/23 05:54:28;;;;;;;6.13;5.47;;;;;;;;;;5562231;25;20791;-77
2024/04/23 05:56:57;;;;;;;5.90;5.30;;;;;;;;;;5543423;25;20281;-78
2024/04/23 05:59:25;;;;;;;6.77;6.07;;;;;;;;;;5561586;25;20292;-78
2024/04/23 06:01:55;;;;;;;5.03;4.53;;;;;;;;;;5564833;25;20242;-78
2024/04/23 06:04:20;;;;;;;4.13;3.00;;;;;;;;;;5562320;25;20346;-77
2024/04/23 06:06:49;;;;;;;4.87;3.80;;;;;;;;;;5564853;25;20573;-78
2024/04/23 06:09:15;;;;;;;3.43;3.13;;;;;;;;;;5561873;25;20281;-78
2024/04/23 06:11:43;;;;;;;4.50;3.83;;;;;;;;;;5564947;25;20234;-78
2024/04/23 06:14:09;;;;;;;5.17;4.77;;;;;;;;;;5561886;25;20274;-78
2024/04/23 06:16:41;;;;;;;7.03;6.43;;;;;;;;;;5564932;25;20230;-78
2024/04/23 06:19:07;;;;;;;5.17;4.77;;;;;;;;;;5561799;25;20285;-77
2024/04/23 06:21:35;;;;;;;3.60;3.30;;;;;;;;;;5564319;25;20242;-78
2024/04/23 06:24:01;;;;;;;4.20;3.90;;;;;;;;;;5561974;25;20234;-77
2024/04/23 06:26:29;;;;;;;4.43;4.07;;;;;;;;;;5565296;25;20242;-77
2024/04/23 06:28:57;;;;;;;5.20;4.80;;;;;;;;;;5564890;25;20230;-77
2024/04/23 06:31:30;;;;;;;8.47;7.10;;;;;;;;;;5568397;25;20338;-78
2024/04/23 06:33:59;;;;;;;9.23;7.13;;;;;;;;;;5565491;25;20265;-77
2024/04/23 06:36:27;;;;;;;10.30;8.10;;;;;;;;;;5567816;25;20226;-78
2024/04/23 06:38:53;;;;;;;30.93;22.17;;;;;;;;;;5565479;25;20294;-78
2024/04/23 06:41:21;;;;;;;7.07;6.47;;;;;;;;;;5567495;25;20673;-78
2024/04/23 06:43:47;;;;;;;3.70;3.40;;;;;;;;;;5565125;25;20273;-78
2024/04/23 06:46:15;;;;;;;2.80;2.60;;;;;;;;;;5567725;25;20694;-79
2024/04/23 06:48:41;;;;;;;2.83;2.60;;;;;;;;;;5565182;25;20281;-78
2024/04/23 06:51:12;;;;;;;2.43;2.30;;;;;;;;;;5566015;25;20231;-78
2024/04/23 06:53:38;;;;;;;3.87;3.57;;;;;;;;;;5543722;25;20277;-78
2024/04/23 06:56:07;;;;;;;4.40;4.00;;;;;;;;;;5567599;25;20230;-78
2024/04/23 06:58:35;;;;;;;3.00;2.80;;;;;;;;;;5565330;25;20326;-78
2024/04/23 07:01:01;;;;;;;2.77;2.57;;;;;;;;;;5564547;25;20230;-78
2024/04/23 07:03:30;;;;;;;4.90;4.50;;;;;;;;;;5567897;25;20326;-78
2024/04/23 07:05:55;;;;;;;5.73;5.30;;;;;;;;;;5564504;25;20604;-77
2024/04/23 07:08:26;;;;;;;5.20;4.83;;;;;;;;;;5567821;25;20223;-78
2024/04/23 07:10:55;;;;;;;3.57;3.27;;;;;;;;;;5564425;25;20238;-78
2024/04/23 07:13:23;;;;;;;3.77;3.53;;;;;;;;;;5567750;25;20274;-78
2024/04/23 07:15:49;;;;;;;2.03;1.93;;;;;;;;;;5564530;25;20222;-77
2024/04/23 07:18:17;;;;;;;5.33;4.83;;;;;;;;;;5567667;25;20273;-77
2024/04/23 07:20:43;;;;;;;3.47;3.17;;;;;;;;;;5564329;25;20306;-77
2024/04/23 07:23:11;;;;;;;2.47;2.27;;;;;;;;;;5567234;25;20230;-77
2024/04/23 07:25:48;;;;;;;2.40;2.17;;;;;;;;;;5564690;25;20230;-78
2024/04/23 07:28:16;;;;;;;2.67;2.47;;;;;;;;;;5567554;25;20222;-78
2024/04/23 07:30:42;;;;;;;2.30;2.20;;;;;;;;;;5564301;25;20231;-78
2024/04/23 07:33:11;;;;;;;2.20;2.00;;;;;;;;;;5567245;25;20733;-78
2024/04/23 07:35:37;;;;;;;2.27;2.10;;;;;;;;;;5564463;25;20257;-78
2024/04/23 07:38:10;;;;;;;1.90;1.77;;;;;;;;;;5565275;25;20299;-78
2024/04/23 07:40:36;;;;;;;1.90;1.80;;;;;;;;;;5541030;25;20316;-79
2024/04/23 07:43:07;;;;;;;2.17;2.07;;;;;;;;;;5567016;25;20721;-79
2024/04/23 07:45:33;;;;;;;1.80;1.70;;;;;;;;;;5564393;25;20614;-79
2024/04/23 07:48:01;;;;;;;1.67;1.57;;;;;;;;;;5566869;25;20238;-79
2024/04/23 07:50:27;;;;;;;2.47;2.27;;;;;;;;;;5564608;25;20362;-79
2024/04/23 07:52:56;;;;;;;2.60;2.40;;;;;;;;;;5567415;25;20223;-79
2024/04/23 07:55:22;;;;;;;2.27;2.07;;;;;;;;;;5564142;25;20590;-79
2024/04/23 07:57:53;;;;;;;2.30;2.20;;;;;;;;;;5567126;25;20226;-79
2024/04/23 08:00:24;;;;;;;2.83;2.63;;;;;;;;;;5564462;25;20226;-79
2024/04/23 08:02:55;;;;;;;1.80;1.70;;;;;;;;;;5559727;25;20232;-79
2024/04/23 08:05:21;;;;;;;2.03;1.83;;;;;;;;;;5548277;25;20284;-79
2024/04/23 08:07:50;;;;;;;1.90;1.80;;;;;;;;;;5566524;25;20808;-79
2024/04/23 08:10:17;;;;;;;1.60;1.50;;;;;;;;;;5563769;25;20235;-79
2024/04/23 08:12:50;;;;;;;1.40;1.30;;;;;;;;;;5566779;25;20302;-79
2024/04/23 08:15:16;;;;;;;1.57;1.30;;;;;;;;;;5563667;25;20375;-79
2024/04/23 08:17:48;;;;;;;1.60;1.50;;;;;;;;;;5566777;25;20234;-78
2024/04/23 08:20:14;;;;;;;2.03;1.93;;;;;;;;;;5563358;25;21069;-79
2024/04/23 08:22:43;;;;;;;1.37;1.27;;;;;;;;;;5567059;25;20230;-79
2024/04/23 08:25:10;;;;;;;1.67;1.57;;;;;;;;;;5563364;25;20294;-79
2024/04/23 08:27:40;;;;;;;3.70;2.20;;;;;;;;;;5566626;25;20277;-78
2024/04/23 08:30:07;;;;;;;2.70;2.50;;;;;;;;;;5563409;25;20729;-79
2024/04/23 08:32:36;;;;;;;12.90;7.60;;;;;;;;;;5566070;25;20234;-79
2024/04/23 08:35:05;;;;;;;6.57;4.40;;;;;;;;;;5563465;25;20270;-79
2024/04/23 08:37:34;;;;;;;2.17;1.77;;;;;;;;;;5566417;25;20363;-79
2024/04/23 08:39:59;;;;;;;2.50;2.30;;;;;;;;;;5563481;25;20231;-79
2024/04/23 08:42:28;;;;;;;2.17;2.00;;;;;;;;;;5566367;25;20289;-78
2024/04/23 08:44:55;;;;;;;2.63;2.43;;;;;;;;;;5563418;25;20820;-79
2024/04/23 08:47:23;;;;;;;1.50;1.40;;;;;;;;;;5566379;25;20226;-79
2024/04/23 08:49:52;;;;;;;1.73;1.63;;;;;;;;;;5562340;25;20610;-79
2024/04/23 08:52:23;;;;;;;1.10;1.10;;;;;;;;;;5566350;25;20601;-78
2024/04/23 08:54:49;;;;;;;1.67;1.57;;;;;;;;;;5563094;25;20231;-78
2024/04/23 08:57:18;;;;;;;5.17;4.67;;;;;;;;;;5566185;25;20625;-78
2024/04/23 08:59:44;;;;;;;3.60;3.30;;;;;;;;;;5560022;25;20226;-78
2024/04/23 09:02:18;;;;;;;2.97;2.53;;;;;;;;;;5565955;25;20277;-78
2024/04/23 09:04:45;;;;;;;3.03;2.73;;;;;;;;;;5563167;25;20234;-78
2024/04/23 09:07:14;;;;;;;3.97;3.03;;;;;;;;;;5566555;25;20235;-79
2024/04/23 09:09:43;;;;;;;5.03;4.53;;;;;;;;;;5563064;25;20290;-79
2024/04/23 09:12:12;;;;;;;1.67;1.57;;;;;;;;;;5565550;25;20288;-79
2024/04/23 09:14:38;;;;;;;2.63;2.43;;;;;;;;;;5563345;25;20260;-79
2024/04/23 09:17:06;;;;;;;1.50;1.40;;;;;;;;;;5566176;25;20685;-79
2024/04/23 09:19:32;;;;;;;2.20;1.97;;;;;;;;;;5562841;25;20728;-79
2024/04/23 09:22:01;;;;;;;3.13;2.83;;;;;;;;;;5565411;25;20599;-79
2024/04/23 09:24:27;;;;;;;3.03;2.73;;;;;;;;;;5562944;25;20709;-79
2024/04/23 09:26:59;;;;;;;2.27;2.07;;;;;;;;;;5565764;25;20226;-78
2024/04/23 09:29:28;;;;;;;2.40;2.20;;;;;;;;;;5562736;25;20231;-79
2024/04/23 09:31:57;;;;;;;2.23;2.13;;;;;;;;;;5565016;25;20246;-79
2024/04/23 09:34:26;;;;;;;2.40;2.20;;;;;;;;;;5562689;25;20230;-79
2024/04/23 09:36:55;;;;;;;3.27;2.97;;;;;;;;;;5565525;25;20223;-80
2024/04/23 09:39:21;;;;;;;3.43;2.90;;;;;;;;;;5562783;25;20230;-80
2024/04/23 09:42:00;;;;;;;3.83;2.93;;;;;;;;;;5565020;25;20633;-80
2024/04/23 09:44:26;;;;;;;3.23;2.93;;;;;;;;;;5562641;25;20809;-79
2024/04/23 09:46:55;;;;;;;1.67;1.57;;;;;;;;;;5565588;25;20278;-80
2024/04/23 09:49:23;;;;;;;2.83;2.63;;;;;;;;;;5562745;25;20335;-80
2024/04/23 09:51:52;;;;;;;1.43;1.33;;;;;;;;;;5564158;25;20235;-79
2024/04/23 09:54:20;;;;;;;2.93;2.60;;;;;;;;;;5562236;25;20705;-79
2024/04/23 09:56:49;;;;;;;1.60;1.50;;;;;;;;;;5565154;25;20280;-79
2024/04/23 09:59:17;;;;;;;2.50;2.30;;;;;;;;;;5561561;25;20578;-78
2024/04/23 10:01:47;;;;;;;4.30;3.80;;;;;;;;;;5566095;25;20285;-78
2024/04/23 10:04:12;;;;;;;2.37;2.13;;;;;;;;;;5565600;25;20276;-78
2024/04/23 10:06:48;;;;;;;2.83;2.63;;;;;;;;;;5568371;25;20680;-78
2024/04/23 10:09:16;;;;;;;6.23;5.73;;;;;;;;;;5565523;25;20233;-78
2024/04/23 10:11:49;;;;;;;3.90;3.60;;;;;;;;;;5568246;25;20235;-78
2024/04/23 10:14:22;;;;;;;2.83;2.63;;;;;;;;;;5565718;25;20281;-79
2024/04/23 10:16:55;;;;;;;3.13;2.93;;;;;;;;;;5568570;25;20234;-80
2024/04/23 10:19:22;;;;;;;3.77;3.47;;;;;;;;;;5565236;25;20349;-79
2024/04/23 10:21:53;;;;;;;3.13;2.93;;;;;;;;;;5568781;25;20337;-79
2024/04/23 10:24:19;;;;;;;2.00;1.90;;;;;;;;;;5565786;25;20294;-79
2024/04/23 10:26:48;;;;;;;1.73;1.63;;;;;;;;;;5568551;25;20231;-78
2024/04/23 10:29:17;;;;;;;2.07;1.97;;;;;;;;;;5565340;25;20255;-78
2024/04/23 10:31:45;;;;;;;2.40;2.20;;;;;;;;;;5567866;25;20226;-77
2024/04/23 10:34:15;;;;;;;4.60;4.20;;;;;;;;;;5565528;25;20230;-78
2024/04/23 10:36:46;;;;;;;5.50;4.10;;;;;;;;;;5567999;25;20608;-78
2024/04/23 10:39:16;;;;;;;3.17;2.97;;;;;;;;;;5565047;25;20329;-78
2024/04/23 10:41:43;;;;;;;5.43;4.40;;;;;;;;;;5565086;25;20231;-79
2024/04/23 10:44:13;;;;;;;3.30;2.80;;;;;;;;;;5568191;25;20230;-78
2024/04/23 10:46:42;;;;;;;4.17;3.87;;;;;;;;;;5564154;25;20239;-78
2024/04/23 10:49:15;;;;;;;7.90;2.83;;;;;;;;;;5567809;25;20305;-79
2024/04/23 10:51:44;;;;;;;3.43;3.23;;;;;;;;;;5564985;25;20743;-79
2024/04/23 10:54:12;;;;;;;3.00;2.70;;;;;;;;;;5567583;25;20231;-79
2024/04/23 10:56:38;;;;;;;2.90;2.70;;;;;;;;;;5540258;25;20234;-79
2024/04/23 10:59:11;;;;;;;2.67;2.47;;;;;;;;;;5567817;25;20222;-79
2024/04/23 11:01:50;;;;;;;2.70;2.50;;;;;;;;;;5540867;25;20230;-79
2024/04/23 11:04:18;;;;;;;2.90;2.70;;;;;;;;;;5567430;25;20234;-79
2024/04/23 11:06:44;;;;;;;2.87;2.67;;;;;;;;;;5565008;25;20231;-79
2024/04/23 11:09:19;;;;;;;3.60;3.30;;;;;;;;;;5567285;25;20867;-79
2024/04/23 11:11:50;;;;;;;3.10;2.80;;;;;;;;;;5564673;25;20226;-79
2024/04/23 11:14:20;;;;;;;2.90;2.60;;;;;;;;;;5567090;25;20234;-79
2024/04/23 11:16:58;;;;;;;2.13;2.00;;;;;;;;;;5565011;25;20717;-79
2024/04/23 11:19:27;;;;;;;4.00;3.73;;;;;;;;;;5566452;25;20253;-80
2024/04/23 11:21:54;;;;;;;2.57;2.37;;;;;;;;;;5564854;25;20235;-80
2024/04/23 11:24:23;;;;;;;2.90;2.70;;;;;;;;;;5543185;25;20744;-80
2024/04/23 11:26:49;;;;;;;4.17;3.87;;;;;;;;;;5564518;25;20231;-80
2024/04/23 11:29:17;;;;;;;2.27;2.07;;;;;;;;;;5567157;25;20270;-80
2024/04/23 11:31:46;;;;;;;2.20;2.10;;;;;;;;;;5564343;25;20626;-80
2024/04/23 11:34:17;;;;;;;2.83;2.63;;;;;;;;;;5567224;25;20556;-80
2024/04/23 11:36:43;;;;;;;4.20;3.90;;;;;;;;;;5564809;25;20280;-80
2024/04/23 11:39:11;;;;;;;6.27;5.77;;;;;;;;;;5565824;25;20741;-80
2024/04/23 11:41:42;;;;;;;5.53;5.13;;;;;;;;;;5564115;25;20412;-80
2024/04/23 11:44:11;;;;;;;2.87;2.67;;;;;;;;;;5567451;25;20596;-80
2024/04/23 11:46:40;;;;;;;2.00;1.90;;;;;;;;;;5564164;25;20226;-80
2024/04/23 11:49:09;;;;;;;2.60;2.37;;;;;;;;;;5567223;25;20234;-80
2024/04/23 11:51:37;;;;;;;1.60;1.50;;;;;;;;;;5563913;25;20277;-80
2024/04/23 11:54:06;;;;;;;1.70;1.60;;;;;;;;;;5566499;25;20230;-80
2024/04/23 11:56:32;;;;;;;1.50;1.40;;;;;;;;;;5564224;25;20285;-80
2024/04/23 11:59:01;;;;;;;1.50;1.40;;;;;;;;;;5567087;25;20285;-80
2024/04/23 12:01:28;;;;;;;1.47;1.37;;;;;;;;;;5563533;25;20733;-80
2024/04/23 12:03:56;;;;;;;2.23;2.10;;;;;;;;;;5566894;25;20234;-80
2024/04/23 12:06:22;;;;;;;2.57;2.37;;;;;;;;;;5553207;25;20283;-80
2024/04/23 12:08:54;;;;;;;2.53;2.33;;;;;;;;;;5552625;25;20282;-80
2024/04/23 12:11:19;;;;;;;3.50;3.20;;;;;;;;;;5563936;25;20360;-80
2024/04/23 12:13:49;;;;;;;5.20;4.73;;;;;;;;;;5567432;25;20234;-80
2024/04/23 12:16:16;;;;;;;3.90;3.60;;;;;;;;;;5539590;25;20729;-80
2024/04/23 12:18:45;;;;;;;2.57;2.37;;;;;;;;;;5566259;25;20222;-80
2024/04/23 12:21:10;;;;;;;4.10;3.80;;;;;;;;;;5563760;25;20741;-80
2024/04/23 12:23:39;;;;;;;5.17;4.77;;;;;;;;;;5565735;25;20337;-80
2024/04/23 12:26:12;;;;;;;4.20;3.80;;;;;;;;;;5563651;25;20276;-80
2024/04/23 12:28:41;;;;;;;3.87;3.57;;;;;;;;;;5566383;25;20317;-80
2024/04/23 12:31:07;;;;;;;2.90;2.70;;;;;;;;;;5563551;25;20223;-80
2024/04/23 12:33:36;;;;;;;2.47;2.37;;;;;;;;;;5566282;25;20265;-80
2024/04/23 12:36:07;;;;;;;2.90;2.70;;;;;;;;;;5563852;25;20235;-80
2024/04/23 12:38:43;;;;;;;4.57;4.17;;;;;;;;;;5565781;25;20235;-79
2024/04/23 12:41:16;;;;;;;3.07;2.87;;;;;;;;;;5563600;25;20230;-79
2024/04/23 12:43:44;;;;;;;3.33;3.13;;;;;;;;;;5566390;25;20242;-80
2024/04/23 12:46:11;;;;;;;3.90;3.63;;;;;;;;;;5563190;25;20242;-79
2024/04/23 12:48:39;;;;;;;5.50;5.10;;;;;;;;;;5566498;25;20226;-79
2024/04/23 12:51:05;;;;;;;6.37;5.83;;;;;;;;;;5563526;25;20290;-79
2024/04/23 12:53:33;;;;;;;6.43;6.00;;;;;;;;;;5565872;25;20306;-79
2024/04/23 12:55:59;;;;;;;7.20;6.53;;;;;;;;;;5563112;25;20230;-79
2024/04/23 12:58:33;;;;;;;5.27;4.93;;;;;;;;;;5565898;25;20230;-79
2024/04/23 13:01:01;;;;;;;16.20;14.40;;;;;;;;;;5562900;25;20242;-79
2024/04/23 13:03:27;;;;;;;13.13;11.93;;;;;;;;;;5563760;25;20234;-80
2024/04/23 13:05:56;;;;;;;7.97;7.37;;;;;;;;;;5565360;25;20329;-80
2024/04/23 13:08:23;;;;;;;5.77;5.27;;;;;;;;;;5563798;25;20768;-80
2024/04/23 13:10:51;;;;;;;3.93;3.63;;;;;;;;;;5565648;25;20230;-79
2024/04/23 13:13:20;;;;;;;3.63;3.33;;;;;;;;;;5563121;25;20234;-80
2024/04/23 13:15:48;;;;;;;5.70;5.30;;;;;;;;;;5562474;25;20235;-80
2024/04/23 13:18:17;;;;;;;12.17;9.43;;;;;;;;;;5565868;25;20280;-80
2024/04/23 13:20:43;;;;;;;9.10;8.20;;;;;;;;;;5562332;25;20752;-80
2024/04/23 13:23:11;;;;;;;6.47;5.80;;;;;;;;;;5565708;25;20306;-80
2024/04/23 13:25:42;;;;;;;4.43;4.13;;;;;;;;;;5562721;25;20231;-80
2024/04/23 13:28:11;;;;;;;2.47;2.13;;;;;;;;;;5565631;25;20298;-80
2024/04/23 13:30:36;;;;;;;3.80;3.50;;;;;;;;;;5562691;25;20277;-80
2024/04/23 13:33:08;;;;;;;5.20;4.30;;;;;;;;;;5565610;25;20242;-80
2024/04/23 13:35:35;;;;;;;8.00;7.20;;;;;;;;;;5562203;25;20924;-80
2024/04/23 13:38:03;;;;;;;5.40;4.90;;;;;;;;;;5565609;25;20321;-80
2024/04/23 13:40:29;;;;;;;5.93;5.30;;;;;;;;;;5562654;25;20729;-80
2024/04/23 13:42:58;;;;;;;6.43;5.83;;;;;;;;;;5565030;25;20222;-80
2024/04/23 13:45:25;;;;;;;5.70;4.97;;;;;;;;;;5562671;25;20238;-80
2024/04/23 13:47:54;;;;;;;6.23;5.63;;;;;;;;;;5565373;25;20222;-80
2024/04/23 13:50:22;;;;;;;6.40;5.50;;;;;;;;;;5562297;25;20301;-80
2024/04/23 13:52:50;;;;;;;4.43;3.80;;;;;;;;;;5564943;25;20592;-80
2024/04/23 13:55:16;;;;;;;3.40;3.10;;;;;;;;;;5562308;25;20234;-79
2024/04/23 13:57:45;;;;;;;2.97;2.30;;;;;;;;;;5564657;25;20318;-80
2024/04/23 14:00:13;;;;;;;2.60;2.40;;;;;;;;;;5562462;25;20235;-79
2024/04/23 14:02:42;;;;;;;3.60;3.20;;;;;;;;;;5564020;25;20281;-79
2024/04/23 14:05:07;;;;;;;3.30;3.10;;;;;;;;;;5561748;25;20231;-79
2024/04/23 14:07:39;;;;;;;3.60;3.37;;;;;;;;;;5564783;25;20291;-79
2024/04/23 14:10:05;;;;;;;5.47;5.00;;;;;;;;;;5562176;25;20608;-79
2024/04/23 14:12:36;;;;;;;3.60;2.93;;;;;;;;;;5563823;25;20249;-79
2024/04/23 14:15:04;;;;;;;3.43;3.13;;;;;;;;;;5561870;25;20278;-79
2024/04/23 14:17:34;;;;;;;4.60;4.20;;;;;;;;;;5564485;25;20230;-79
2024/04/23 14:19:59;;;;;;;5.87;3.30;;;;;;;;;;5561435;25;20269;-79
2024/04/23 14:22:28;;;;;;;5.53;4.37;;;;;;;;;;5564794;25;20234;-80
2024/04/23 14:24:56;;;;;;;6.30;4.43;;;;;;;;;;5561996;25;20246;-79
2024/04/23 14:27:25;;;;;;;4.03;3.63;;;;;;;;;;5563964;25;20554;-79
2024/04/23 14:29:50;;;;;;;8.57;5.87;;;;;;;;;;5561807;25;20425;-79
2024/04/23 14:32:21;;;;;;;5.10;4.70;;;;;;;;;;5564252;25;20223;-79
2024/04/23 14:34:47;;;;;;;5.03;4.63;;;;;;;;;;5561779;25;20298;-79
2024/04/23 14:37:15;;;;;;;5.73;5.13;;;;;;;;;;5564019;25;20219;-79
2024/04/23 14:39:43;;;;;;;5.97;5.07;;;;;;;;;;5561259;25;20359;-79
2024/04/23 14:42:14;;;;;;;5.27;4.87;;;;;;;;;;5564103;25;20238;-79
2024/04/23 14:44:40;;;;;;;6.33;5.27;;;;;;;;;;5561570;25;20276;-79
2024/04/23 14:47:08;;;;;;;5.13;4.53;;;;;;;;;;5564364;25;20580;-79
2024/04/23 14:49:34;;;;;;;4.27;3.97;;;;;;;;;;5564904;25;20690;-79
2024/04/23 14:52:02;;;;;;;8.10;7.10;;;;;;;;;;5568121;25;20242;-78
2024/04/23 14:54:28;;;;;;;14.93;12.13;;;;;;;;;;5564871;25;20274;-79
2024/04/23 14:56:57;;;;;;;5.77;5.23;;;;;;;;;;5568137;25;20242;-79